sensor_id;sensor_type;location;lat;lon;timestamp;P1;durP1;ratioP1;P2;durP2;ratioP2
6860;SDS011;3469;47.060;15.460;2022-10-31T00:01:22;13.40;;;9.10;;
6860;SDS011;3469;47.060;15.460;2022-10-31T00:03:52;10.07;;;7.60;;
6860;SDS011;3469;47.060;15.460;2022-10-31T00:06:21;8.83;;;6.90;;
6860;SDS011;3469;47.060;15.460;2022-10-31T00:08:53;12.00;;;8.17;;
6860;SDS011;3469;47.060;15.460;2022-10-31T00:11:22;14.93;;;8.00;;
6860;SDS011;3469;47.060;15.460;2022-10-31T00:13:51;11.57;;;7.93;;
6860;SDS011;3469;47.060;15.460;2022-10-31T00:16:20;12.80;;;8.17;;
6860;SDS011;3469;47.060;15.460;2022-10-31T00:18:50;11.83;;;6.70;;
6860;SDS011;3469;47.060;15.460;2022-10-31T00:21:19;10.00;;;7.57;;
6860;SDS011;3469;47.060;15.460;2022-10-31T00:23:48;16.90;;;8.80;;
6860;SDS011;3469;47.060;15.460;2022-10-31T00:26:18;15.00;;;8.30;;
6860;SDS011;3469;47.060;15.460;2022-10-31T00:28:47;9.67;;;8.27;;
6860;SDS011;3469;47.060;15.460;2022-10-31T00:31:18;14.83;;;8.23;;
6860;SDS011;3469;47.060;15.460;2022-10-31T00:33:48;9.50;;;7.60;;
6860;SDS011;3469;47.060;15.460;2022-10-31T00:36:18;11.33;;;8.27;;
6860;SDS011;3469;47.060;15.460;2022-10-31T00:38:47;11.73;;;7.63;;
6860;SDS011;3469;47.060;15.460;2022-10-31T00:41:16;9.60;;;6.97;;
6860;SDS011;3469;47.060;15.460;2022-10-31T00:43:46;11.03;;;7.03;;
6860;SDS011;3469;47.060;15.460;2022-10-31T00:46:15;10.60;;;7.60;;
6860;SDS011;3469;47.060;15.460;2022-10-31T00:48:43;12.97;;;7.33;;
6860;SDS011;3469;47.060;15.460;2022-10-31T00:51:11;15.17;;;7.73;;
6860;SDS011;3469;47.060;15.460;2022-10-31T00:53:42;14.17;;;9.00;;
6860;SDS011;3469;47.060;15.460;2022-10-31T00:56:11;18.93;;;8.70;;
6860;SDS011;3469;47.060;15.460;2022-10-31T00:58:39;21.60;;;9.33;;
6860;SDS011;3469;47.060;15.460;2022-10-31T01:01:09;13.30;;;8.50;;
6860;SDS011;3469;47.060;15.460;2022-10-31T01:03:38;19.13;;;8.40;;
6860;SDS011;3469;47.060;15.460;2022-10-31T01:06:11;10.90;;;7.37;;
6860;SDS011;3469;47.060;15.460;2022-10-31T01:08:40;12.70;;;8.33;;
6860;SDS011;3469;47.060;15.460;2022-10-31T01:11:12;13.20;;;8.20;;
6860;SDS011;3469;47.060;15.460;2022-10-31T01:13:41;10.73;;;8.30;;
6860;SDS011;3469;47.060;15.460;2022-10-31T01:16:12;13.97;;;8.10;;
6860;SDS011;3469;47.060;15.460;2022-10-31T01:18:42;11.40;;;8.67;;
6860;SDS011;3469;47.060;15.460;2022-10-31T01:21:11;15.00;;;7.90;;
6860;SDS011;3469;47.060;15.460;2022-10-31T01:23:40;13.60;;;8.50;;
6860;SDS011;3469;47.060;15.460;2022-10-31T01:26:12;12.90;;;7.90;;
6860;SDS011;3469;47.060;15.460;2022-10-31T01:28:46;13.87;;;8.40;;
6860;SDS011;3469;47.060;15.460;2022-10-31T01:31:17;15.13;;;7.87;;
6860;SDS011;3469;47.060;15.460;2022-10-31T01:33:47;13.40;;;8.70;;
6860;SDS011;3469;47.060;15.460;2022-10-31T01:36:17;12.00;;;6.87;;
6860;SDS011;3469;47.060;15.460;2022-10-31T01:38:49;11.73;;;7.50;;
6860;SDS011;3469;47.060;15.460;2022-10-31T01:41:19;12.07;;;7.63;;
6860;SDS011;3469;47.060;15.460;2022-10-31T01:43:50;13.47;;;8.10;;
6860;SDS011;3469;47.060;15.460;2022-10-31T01:46:22;11.27;;;7.43;;
6860;SDS011;3469;47.060;15.460;2022-10-31T01:48:52;11.03;;;7.43;;
6860;SDS011;3469;47.060;15.460;2022-10-31T01:51:23;16.47;;;8.27;;
6860;SDS011;3469;47.060;15.460;2022-10-31T01:53:57;15.77;;;7.93;;
6860;SDS011;3469;47.060;15.460;2022-10-31T01:56:27;19.97;;;8.93;;
6860;SDS011;3469;47.060;15.460;2022-10-31T01:58:56;12.63;;;8.10;;
6860;SDS011;3469;47.060;15.460;2022-10-31T02:01:26;12.50;;;7.80;;
6860;SDS011;3469;47.060;15.460;2022-10-31T02:03:55;13.03;;;8.43;;
6860;SDS011;3469;47.060;15.460;2022-10-31T02:06:26;16.00;;;8.87;;
6860;SDS011;3469;47.060;15.460;2022-10-31T02:08:58;26.00;;;8.80;;
6860;SDS011;3469;47.060;15.460;2022-10-31T02:11:28;13.77;;;8.27;;
6860;SDS011;3469;47.060;15.460;2022-10-31T02:13:57;14.10;;;7.47;;
6860;SDS011;3469;47.060;15.460;2022-10-31T02:16:27;12.47;;;8.00;;
6860;SDS011;3469;47.060;15.460;2022-10-31T02:18:56;9.00;;;7.40;;
6860;SDS011;3469;47.060;15.460;2022-10-31T02:21:25;12.90;;;7.30;;
6860;SDS011;3469;47.060;15.460;2022-10-31T02:24:07;10.27;;;7.00;;
6860;SDS011;3469;47.060;15.460;2022-10-31T02:26:51;16.37;;;7.90;;
6860;SDS011;3469;47.060;15.460;2022-10-31T02:35:36;14.70;;;8.27;;
6860;SDS011;3469;47.060;15.460;2022-10-31T02:38:14;13.33;;;9.10;;
6860;SDS011;3469;47.060;15.460;2022-10-31T02:40:53;14.53;;;8.00;;
6860;SDS011;3469;47.060;15.460;2022-10-31T02:43:40;14.60;;;9.03;;
6860;SDS011;3469;47.060;15.460;2022-10-31T02:46:13;12.53;;;8.43;;
6860;SDS011;3469;47.060;15.460;2022-10-31T02:48:45;13.70;;;9.57;;
6860;SDS011;3469;47.060;15.460;2022-10-31T02:51:15;16.50;;;10.63;;
6860;SDS011;3469;47.060;15.460;2022-10-31T02:53:44;30.80;;;11.67;;
6860;SDS011;3469;47.060;15.460;2022-10-31T02:56:13;25.87;;;11.60;;
6860;SDS011;3469;47.060;15.460;2022-10-31T02:58:44;36.00;;;12.87;;
6860;SDS011;3469;47.060;15.460;2022-10-31T03:01:35;27.03;;;12.77;;
6860;SDS011;3469;47.060;15.460;2022-10-31T03:04:19;38.50;;;13.03;;
6860;SDS011;3469;47.060;15.460;2022-10-31T03:06:56;34.90;;;12.40;;
6860;SDS011;3469;47.060;15.460;2022-10-31T03:09:32;38.73;;;13.00;;
6860;SDS011;3469;47.060;15.460;2022-10-31T03:12:04;37.10;;;10.83;;
6860;SDS011;3469;47.060;15.460;2022-10-31T03:14:37;31.47;;;13.30;;
6860;SDS011;3469;47.060;15.460;2022-10-31T03:17:09;70.00;;;14.63;;
6860;SDS011;3469;47.060;15.460;2022-10-31T03:19:43;17.57;;;11.17;;
6860;SDS011;3469;47.060;15.460;2022-10-31T03:22:15;30.40;;;10.70;;
6860;SDS011;3469;47.060;15.460;2022-10-31T03:24:45;58.60;;;14.90;;
6860;SDS011;3469;47.060;15.460;2022-10-31T03:27:18;28.50;;;11.50;;
6860;SDS011;3469;47.060;15.460;2022-10-31T03:29:49;16.47;;;9.50;;
6860;SDS011;3469;47.060;15.460;2022-10-31T03:32:19;18.43;;;11.17;;
6860;SDS011;3469;47.060;15.460;2022-10-31T03:34:53;21.63;;;9.67;;
6860;SDS011;3469;47.060;15.460;2022-10-31T03:37:23;14.13;;;8.97;;
6860;SDS011;3469;47.060;15.460;2022-10-31T03:39:53;12.23;;;8.80;;
6860;SDS011;3469;47.060;15.460;2022-10-31T03:42:24;15.33;;;9.90;;
6860;SDS011;3469;47.060;15.460;2022-10-31T03:44:54;12.33;;;9.10;;
6860;SDS011;3469;47.060;15.460;2022-10-31T03:47:26;15.50;;;9.40;;
6860;SDS011;3469;47.060;15.460;2022-10-31T03:49:56;15.03;;;9.37;;
6860;SDS011;3469;47.060;15.460;2022-10-31T03:52:25;14.40;;;9.07;;
6860;SDS011;3469;47.060;15.460;2022-10-31T03:54:57;11.27;;;8.00;;
6860;SDS011;3469;47.060;15.460;2022-10-31T03:57:29;17.10;;;9.73;;
6860;SDS011;3469;47.060;15.460;2022-10-31T04:00:04;16.13;;;9.00;;
6860;SDS011;3469;47.060;15.460;2022-10-31T04:02:45;14.93;;;8.60;;
6860;SDS011;3469;47.060;15.460;2022-10-31T04:05:17;16.53;;;9.57;;
6860;SDS011;3469;47.060;15.460;2022-10-31T04:07:46;15.83;;;9.70;;
6860;SDS011;3469;47.060;15.460;2022-10-31T04:10:17;12.53;;;9.63;;
6860;SDS011;3469;47.060;15.460;2022-10-31T04:12:48;14.33;;;9.13;;
6860;SDS011;3469;47.060;15.460;2022-10-31T04:15:21;15.00;;;9.37;;
6860;SDS011;3469;47.060;15.460;2022-10-31T04:17:50;13.30;;;10.27;;
6860;SDS011;3469;47.060;15.460;2022-10-31T04:20:30;15.87;;;10.80;;
6860;SDS011;3469;47.060;15.460;2022-10-31T04:22:59;12.20;;;8.60;;
6860;SDS011;3469;47.060;15.460;2022-10-31T04:25:28;14.70;;;9.40;;
6860;SDS011;3469;47.060;15.460;2022-10-31T04:27:57;11.93;;;8.40;;
6860;SDS011;3469;47.060;15.460;2022-10-31T04:30:26;14.63;;;9.57;;
6860;SDS011;3469;47.060;15.460;2022-10-31T04:32:54;16.00;;;9.10;;
6860;SDS011;3469;47.060;15.460;2022-10-31T04:35:23;17.60;;;12.40;;
6860;SDS011;3469;47.060;15.460;2022-10-31T04:37:53;12.13;;;8.27;;
6860;SDS011;3469;47.060;15.460;2022-10-31T04:40:21;16.00;;;9.03;;
6860;SDS011;3469;47.060;15.460;2022-10-31T04:43:16;17.30;;;10.00;;
6860;SDS011;3469;47.060;15.460;2022-10-31T04:45:44;10.23;;;8.60;;
6860;SDS011;3469;47.060;15.460;2022-10-31T04:48:13;11.50;;;7.50;;
6860;SDS011;3469;47.060;15.460;2022-10-31T04:50:43;12.17;;;8.67;;
6860;SDS011;3469;47.060;15.460;2022-10-31T04:53:15;12.30;;;8.90;;
6860;SDS011;3469;47.060;15.460;2022-10-31T04:56:12;14.13;;;9.80;;
6860;SDS011;3469;47.060;15.460;2022-10-31T04:58:43;16.13;;;9.07;;
6860;SDS011;3469;47.060;15.460;2022-10-31T05:01:12;15.30;;;8.60;;
6860;SDS011;3469;47.060;15.460;2022-10-31T05:03:40;17.13;;;9.50;;
6860;SDS011;3469;47.060;15.460;2022-10-31T05:06:09;19.30;;;9.40;;
6860;SDS011;3469;47.060;15.460;2022-10-31T05:08:41;14.10;;;9.87;;
6860;SDS011;3469;47.060;15.460;2022-10-31T05:11:10;13.23;;;8.63;;
6860;SDS011;3469;47.060;15.460;2022-10-31T05:13:39;14.80;;;9.43;;
6860;SDS011;3469;47.060;15.460;2022-10-31T05:16:13;11.57;;;8.20;;
6860;SDS011;3469;47.060;15.460;2022-10-31T05:19:07;12.90;;;8.93;;
6860;SDS011;3469;47.060;15.460;2022-10-31T05:21:56;16.00;;;9.50;;
6860;SDS011;3469;47.060;15.460;2022-10-31T05:24:26;12.87;;;8.77;;
6860;SDS011;3469;47.060;15.460;2022-10-31T05:26:55;12.00;;;9.37;;
6860;SDS011;3469;47.060;15.460;2022-10-31T05:29:24;11.40;;;9.33;;
6860;SDS011;3469;47.060;15.460;2022-10-31T05:31:52;12.13;;;9.33;;
6860;SDS011;3469;47.060;15.460;2022-10-31T05:34:36;24.00;;;9.80;;
6860;SDS011;3469;47.060;15.460;2022-10-31T05:37:18;11.23;;;9.70;;
6860;SDS011;3469;47.060;15.460;2022-10-31T05:39:46;10.63;;;7.67;;
6860;SDS011;3469;47.060;15.460;2022-10-31T05:42:17;12.50;;;9.50;;
6860;SDS011;3469;47.060;15.460;2022-10-31T05:44:46;12.60;;;8.20;;
6860;SDS011;3469;47.060;15.460;2022-10-31T05:47:25;13.50;;;9.67;;
6860;SDS011;3469;47.060;15.460;2022-10-31T05:49:56;15.07;;;10.17;;
6860;SDS011;3469;47.060;15.460;2022-10-31T05:52:34;12.73;;;9.10;;
6860;SDS011;3469;47.060;15.460;2022-10-31T05:55:11;13.10;;;9.10;;
6860;SDS011;3469;47.060;15.460;2022-10-31T05:57:51;13.00;;;8.60;;
6860;SDS011;3469;47.060;15.460;2022-10-31T06:00:20;18.73;;;9.10;;
6860;SDS011;3469;47.060;15.460;2022-10-31T06:02:48;14.77;;;10.10;;
6860;SDS011;3469;47.060;15.460;2022-10-31T06:05:32;15.27;;;9.70;;
6860;SDS011;3469;47.060;15.460;2022-10-31T06:08:01;22.93;;;11.77;;
6860;SDS011;3469;47.060;15.460;2022-10-31T06:10:30;14.67;;;10.33;;
6860;SDS011;3469;47.060;15.460;2022-10-31T06:12:58;12.10;;;9.60;;
6860;SDS011;3469;47.060;15.460;2022-10-31T06:15:42;11.83;;;8.70;;
6860;SDS011;3469;47.060;15.460;2022-10-31T06:18:11;14.07;;;8.83;;
6860;SDS011;3469;47.060;15.460;2022-10-31T06:20:47;17.33;;;8.93;;
6860;SDS011;3469;47.060;15.460;2022-10-31T06:23:16;15.97;;;9.60;;
6860;SDS011;3469;47.060;15.460;2022-10-31T06:25:48;15.67;;;10.60;;
6860;SDS011;3469;47.060;15.460;2022-10-31T06:28:17;12.27;;;9.30;;
6860;SDS011;3469;47.060;15.460;2022-10-31T06:31:00;14.37;;;9.60;;
6860;SDS011;3469;47.060;15.460;2022-10-31T06:33:30;10.67;;;9.00;;
6860;SDS011;3469;47.060;15.460;2022-10-31T06:36:02;12.40;;;9.70;;
6860;SDS011;3469;47.060;15.460;2022-10-31T06:38:31;12.53;;;9.93;;
6860;SDS011;3469;47.060;15.460;2022-10-31T06:41:01;12.47;;;9.10;;
6860;SDS011;3469;47.060;15.460;2022-10-31T06:43:47;12.47;;;9.50;;
6860;SDS011;3469;47.060;15.460;2022-10-31T06:46:26;8.70;;;7.77;;
6860;SDS011;3469;47.060;15.460;2022-10-31T06:49:07;12.20;;;9.97;;
6860;SDS011;3469;47.060;15.460;2022-10-31T06:51:51;11.70;;;9.60;;
6860;SDS011;3469;47.060;15.460;2022-10-31T06:54:20;16.83;;;9.77;;
6860;SDS011;3469;47.060;15.460;2022-10-31T06:56:49;19.20;;;11.10;;
6860;SDS011;3469;47.060;15.460;2022-10-31T06:59:20;13.03;;;9.70;;
6860;SDS011;3469;47.060;15.460;2022-10-31T07:02:13;14.33;;;11.00;;
6860;SDS011;3469;47.060;15.460;2022-10-31T07:04:42;12.23;;;10.93;;
6860;SDS011;3469;47.060;15.460;2022-10-31T07:07:17;12.23;;;9.53;;
6860;SDS011;3469;47.060;15.460;2022-10-31T07:09:49;16.60;;;11.47;;
6860;SDS011;3469;47.060;15.460;2022-10-31T07:12:23;14.10;;;10.83;;
6860;SDS011;3469;47.060;15.460;2022-10-31T07:14:56;13.73;;;10.17;;
6860;SDS011;3469;47.060;15.460;2022-10-31T07:17:25;17.17;;;11.13;;
6860;SDS011;3469;47.060;15.460;2022-10-31T07:19:59;17.40;;;12.37;;
6860;SDS011;3469;47.060;15.460;2022-10-31T07:22:33;17.80;;;12.60;;
6860;SDS011;3469;47.060;15.460;2022-10-31T07:25:04;19.23;;;12.37;;
6860;SDS011;3469;47.060;15.460;2022-10-31T07:27:53;19.47;;;13.93;;
6860;SDS011;3469;47.060;15.460;2022-10-31T07:30:21;15.20;;;13.17;;
6860;SDS011;3469;47.060;15.460;2022-10-31T07:32:53;17.70;;;14.50;;
6860;SDS011;3469;47.060;15.460;2022-10-31T07:35:27;18.57;;;14.00;;
6860;SDS011;3469;47.060;15.460;2022-10-31T07:38:05;20.00;;;15.20;;
6860;SDS011;3469;47.060;15.460;2022-10-31T07:40:34;22.53;;;15.90;;
6860;SDS011;3469;47.060;15.460;2022-10-31T07:43:03;20.00;;;14.90;;
6860;SDS011;3469;47.060;15.460;2022-10-31T07:46:17;21.67;;;15.00;;
6860;SDS011;3469;47.060;15.460;2022-10-31T07:49:04;20.57;;;15.70;;
6860;SDS011;3469;47.060;15.460;2022-10-31T07:51:51;23.33;;;14.80;;
6860;SDS011;3469;47.060;15.460;2022-10-31T07:54:43;25.43;;;19.57;;
6860;SDS011;3469;47.060;15.460;2022-10-31T07:57:12;27.70;;;17.80;;
6860;SDS011;3469;47.060;15.460;2022-10-31T07:59:42;23.97;;;19.23;;
6860;SDS011;3469;47.060;15.460;2022-10-31T08:02:10;24.17;;;18.57;;
6860;SDS011;3469;47.060;15.460;2022-10-31T08:04:47;31.60;;;18.73;;
6860;SDS011;3469;47.060;15.460;2022-10-31T08:07:35;26.17;;;20.33;;
6860;SDS011;3469;47.060;15.460;2022-10-31T08:10:12;32.10;;;19.83;;
6860;SDS011;3469;47.060;15.460;2022-10-31T08:12:40;27.37;;;21.23;;
6860;SDS011;3469;47.060;15.460;2022-10-31T08:15:09;28.60;;;21.13;;
6860;SDS011;3469;47.060;15.460;2022-10-31T08:17:37;24.23;;;19.93;;
6860;SDS011;3469;47.060;15.460;2022-10-31T08:20:06;26.43;;;18.80;;
6860;SDS011;3469;47.060;15.460;2022-10-31T08:22:43;20.70;;;17.10;;
6860;SDS011;3469;47.060;15.460;2022-10-31T08:25:12;15.13;;;12.13;;
6860;SDS011;3469;47.060;15.460;2022-10-31T08:27:42;11.17;;;8.93;;
6860;SDS011;3469;47.060;15.460;2022-10-31T08:30:16;9.50;;;7.90;;
6860;SDS011;3469;47.060;15.460;2022-10-31T08:33:00;12.80;;;8.37;;
6860;SDS011;3469;47.060;15.460;2022-10-31T08:35:57;10.40;;;7.43;;
6860;SDS011;3469;47.060;15.460;2022-10-31T08:38:44;9.77;;;7.67;;
6860;SDS011;3469;47.060;15.460;2022-10-31T08:41:16;12.30;;;8.13;;
6860;SDS011;3469;47.060;15.460;2022-10-31T08:43:45;15.07;;;7.97;;
6860;SDS011;3469;47.060;15.460;2022-10-31T08:46:14;9.37;;;6.80;;
6860;SDS011;3469;47.060;15.460;2022-10-31T08:48:43;10.90;;;6.83;;
6860;SDS011;3469;47.060;15.460;2022-10-31T08:51:12;9.30;;;7.27;;
6860;SDS011;3469;47.060;15.460;2022-10-31T08:53:41;8.70;;;6.60;;
6860;SDS011;3469;47.060;15.460;2022-10-31T08:56:30;7.33;;;5.87;;
6860;SDS011;3469;47.060;15.460;2022-10-31T08:58:59;9.93;;;6.00;;
6860;SDS011;3469;47.060;15.460;2022-10-31T09:02:04;11.00;;;5.97;;
6860;SDS011;3469;47.060;15.460;2022-10-31T09:04:34;7.43;;;5.90;;
6860;SDS011;3469;47.060;15.460;2022-10-31T09:07:03;6.53;;;5.63;;
6860;SDS011;3469;47.060;15.460;2022-10-31T09:09:47;5.80;;;4.20;;
6860;SDS011;3469;47.060;15.460;2022-10-31T09:12:19;9.10;;;4.77;;
6860;SDS011;3469;47.060;15.460;2022-10-31T09:15:23;9.20;;;5.40;;
6860;SDS011;3469;47.060;15.460;2022-10-31T09:17:57;9.13;;;4.93;;
6860;SDS011;3469;47.060;15.460;2022-10-31T09:20:36;8.27;;;5.77;;
6860;SDS011;3469;47.060;15.460;2022-10-31T09:23:06;7.60;;;5.73;;
6860;SDS011;3469;47.060;15.460;2022-10-31T09:25:37;10.80;;;5.90;;
6860;SDS011;3469;47.060;15.460;2022-10-31T09:28:42;10.63;;;6.40;;
6860;SDS011;3469;47.060;15.460;2022-10-31T09:31:13;10.70;;;6.10;;
6860;SDS011;3469;47.060;15.460;2022-10-31T09:34:05;11.53;;;6.40;;
6860;SDS011;3469;47.060;15.460;2022-10-31T09:36:36;9.07;;;6.60;;
6860;SDS011;3469;47.060;15.460;2022-10-31T09:39:08;8.80;;;7.33;;
6860;SDS011;3469;47.060;15.460;2022-10-31T09:41:42;11.60;;;5.97;;
6860;SDS011;3469;47.060;15.460;2022-10-31T09:44:30;12.90;;;6.20;;
6860;SDS011;3469;47.060;15.460;2022-10-31T09:47:03;9.60;;;6.00;;
6860;SDS011;3469;47.060;15.460;2022-10-31T09:49:45;9.20;;;6.27;;
6860;SDS011;3469;47.060;15.460;2022-10-31T09:52:23;9.40;;;5.80;;
6860;SDS011;3469;47.060;15.460;2022-10-31T09:54:56;7.10;;;5.20;;
6860;SDS011;3469;47.060;15.460;2022-10-31T09:57:27;7.37;;;5.10;;
6860;SDS011;3469;47.060;15.460;2022-10-31T09:59:58;7.60;;;5.27;;
6860;SDS011;3469;47.060;15.460;2022-10-31T10:02:29;10.80;;;5.50;;
6860;SDS011;3469;47.060;15.460;2022-10-31T10:04:59;7.97;;;5.33;;
6860;SDS011;3469;47.060;15.460;2022-10-31T10:07:40;11.53;;;5.83;;
6860;SDS011;3469;47.060;15.460;2022-10-31T10:10:34;8.70;;;6.57;;
6860;SDS011;3469;47.060;15.460;2022-10-31T10:13:38;14.47;;;6.70;;
6860;SDS011;3469;47.060;15.460;2022-10-31T10:16:23;8.07;;;5.73;;
6860;SDS011;3469;47.060;15.460;2022-10-31T10:19:03;7.57;;;5.57;;
6860;SDS011;3469;47.060;15.460;2022-10-31T10:21:39;8.90;;;5.67;;
6860;SDS011;3469;47.060;15.460;2022-10-31T10:24:19;9.70;;;5.23;;
6860;SDS011;3469;47.060;15.460;2022-10-31T10:26:53;14.33;;;5.83;;
6860;SDS011;3469;47.060;15.460;2022-10-31T10:29:29;6.93;;;5.10;;
6860;SDS011;3469;47.060;15.460;2022-10-31T10:32:11;7.30;;;4.07;;
6860;SDS011;3469;47.060;15.460;2022-10-31T10:34:44;7.97;;;5.10;;
6860;SDS011;3469;47.060;15.460;2022-10-31T10:37:17;8.33;;;4.77;;
6860;SDS011;3469;47.060;15.460;2022-10-31T10:39:51;10.40;;;5.47;;
6860;SDS011;3469;47.060;15.460;2022-10-31T10:42:23;10.47;;;5.43;;
6860;SDS011;3469;47.060;15.460;2022-10-31T10:45:13;6.00;;;4.70;;
6860;SDS011;3469;47.060;15.460;2022-10-31T10:48:05;6.00;;;4.30;;
6860;SDS011;3469;47.060;15.460;2022-10-31T10:50:39;7.40;;;5.30;;
6860;SDS011;3469;47.060;15.460;2022-10-31T10:53:12;5.70;;;4.40;;
6860;SDS011;3469;47.060;15.460;2022-10-31T10:55:59;10.07;;;5.30;;
6860;SDS011;3469;47.060;15.460;2022-10-31T10:58:34;7.97;;;5.13;;
6860;SDS011;3469;47.060;15.460;2022-10-31T11:01:08;7.50;;;4.80;;
6860;SDS011;3469;47.060;15.460;2022-10-31T11:03:40;8.83;;;5.60;;
6860;SDS011;3469;47.060;15.460;2022-10-31T11:06:16;7.97;;;5.10;;
6860;SDS011;3469;47.060;15.460;2022-10-31T11:08:48;6.57;;;4.83;;
6860;SDS011;3469;47.060;15.460;2022-10-31T11:11:24;5.73;;;4.30;;
6860;SDS011;3469;47.060;15.460;2022-10-31T11:13:57;11.13;;;5.03;;
6860;SDS011;3469;47.060;15.460;2022-10-31T11:16:30;10.23;;;5.40;;
6860;SDS011;3469;47.060;15.460;2022-10-31T11:19:15;7.27;;;4.50;;
6860;SDS011;3469;47.060;15.460;2022-10-31T11:21:45;15.23;;;5.57;;
6860;SDS011;3469;47.060;15.460;2022-10-31T11:24:20;6.70;;;4.90;;
6860;SDS011;3469;47.060;15.460;2022-10-31T11:26:49;10.43;;;4.40;;
6860;SDS011;3469;47.060;15.460;2022-10-31T11:29:20;8.20;;;4.83;;
6860;SDS011;3469;47.060;15.460;2022-10-31T11:31:52;8.70;;;4.50;;
6860;SDS011;3469;47.060;15.460;2022-10-31T11:34:26;6.07;;;4.47;;
6860;SDS011;3469;47.060;15.460;2022-10-31T11:36:59;8.77;;;5.23;;
6860;SDS011;3469;47.060;15.460;2022-10-31T11:39:31;7.40;;;5.30;;
6860;SDS011;3469;47.060;15.460;2022-10-31T11:42:00;9.50;;;5.20;;
6860;SDS011;3469;47.060;15.460;2022-10-31T11:44:34;9.90;;;4.83;;
6860;SDS011;3469;47.060;15.460;2022-10-31T11:47:03;9.60;;;5.00;;
6860;SDS011;3469;47.060;15.460;2022-10-31T11:49:34;5.30;;;4.20;;
6860;SDS011;3469;47.060;15.460;2022-10-31T11:52:05;9.53;;;4.63;;
6860;SDS011;3469;47.060;15.460;2022-10-31T11:54:39;8.63;;;5.13;;
6860;SDS011;3469;47.060;15.460;2022-10-31T11:57:21;9.57;;;4.87;;
6860;SDS011;3469;47.060;15.460;2022-10-31T11:59:52;5.60;;;4.87;;
6860;SDS011;3469;47.060;15.460;2022-10-31T12:02:21;8.03;;;4.90;;
6860;SDS011;3469;47.060;15.460;2022-10-31T12:04:53;4.90;;;4.40;;
6860;SDS011;3469;47.060;15.460;2022-10-31T12:07:28;6.47;;;4.57;;
6860;SDS011;3469;47.060;15.460;2022-10-31T12:09:56;10.03;;;4.23;;
6860;SDS011;3469;47.060;15.460;2022-10-31T12:12:29;13.73;;;5.70;;
6860;SDS011;3469;47.060;15.460;2022-10-31T12:15:10;11.10;;;5.30;;
6860;SDS011;3469;47.060;15.460;2022-10-31T12:17:49;5.27;;;4.70;;
6860;SDS011;3469;47.060;15.460;2022-10-31T12:20:26;8.33;;;5.33;;
6860;SDS011;3469;47.060;15.460;2022-10-31T12:23:01;8.73;;;5.03;;
6860;SDS011;3469;47.060;15.460;2022-10-31T12:25:37;8.00;;;4.73;;
6860;SDS011;3469;47.060;15.460;2022-10-31T12:28:25;5.13;;;3.90;;
6860;SDS011;3469;47.060;15.460;2022-10-31T12:31:20;5.83;;;4.03;;
6860;SDS011;3469;47.060;15.460;2022-10-31T12:33:58;8.20;;;4.60;;
6860;SDS011;3469;47.060;15.460;2022-10-31T12:36:36;16.93;;;4.37;;
6860;SDS011;3469;47.060;15.460;2022-10-31T12:39:21;8.00;;;4.10;;
6860;SDS011;3469;47.060;15.460;2022-10-31T12:41:52;7.03;;;4.70;;
6860;SDS011;3469;47.060;15.460;2022-10-31T12:47:36;8.20;;;4.47;;
6860;SDS011;3469;47.060;15.460;2022-10-31T12:50:28;5.60;;;4.47;;
6860;SDS011;3469;47.060;15.460;2022-10-31T12:53:15;9.63;;;4.73;;
6860;SDS011;3469;47.060;15.460;2022-10-31T12:55:53;6.60;;;4.60;;
6860;SDS011;3469;47.060;15.460;2022-10-31T12:58:28;7.90;;;4.40;;
6860;SDS011;3469;47.060;15.460;2022-10-31T13:01:02;6.97;;;5.03;;
6860;SDS011;3469;47.060;15.460;2022-10-31T13:03:38;12.87;;;4.73;;
6860;SDS011;3469;47.060;15.460;2022-10-31T13:06:12;5.30;;;4.20;;
6860;SDS011;3469;47.060;15.460;2022-10-31T13:08:47;6.30;;;4.70;;
6860;SDS011;3469;47.060;15.460;2022-10-31T13:11:18;4.50;;;4.10;;
6860;SDS011;3469;47.060;15.460;2022-10-31T13:13:51;12.13;;;5.50;;
6860;SDS011;3469;47.060;15.460;2022-10-31T13:16:24;5.80;;;4.83;;
6860;SDS011;3469;47.060;15.460;2022-10-31T13:18:57;7.90;;;4.23;;
6860;SDS011;3469;47.060;15.460;2022-10-31T13:22:03;5.93;;;4.10;;
6860;SDS011;3469;47.060;15.460;2022-10-31T13:24:50;6.37;;;4.50;;
6860;SDS011;3469;47.060;15.460;2022-10-31T13:27:23;5.33;;;4.63;;
6860;SDS011;3469;47.060;15.460;2022-10-31T13:29:58;6.00;;;4.67;;
6860;SDS011;3469;47.060;15.460;2022-10-31T13:32:30;10.20;;;5.00;;
6860;SDS011;3469;47.060;15.460;2022-10-31T13:35:07;7.10;;;4.40;;
6860;SDS011;3469;47.060;15.460;2022-10-31T13:37:40;8.97;;;5.63;;
6860;SDS011;3469;47.060;15.460;2022-10-31T13:40:21;7.47;;;4.90;;
6860;SDS011;3469;47.060;15.460;2022-10-31T13:42:54;5.97;;;4.13;;
6860;SDS011;3469;47.060;15.460;2022-10-31T13:45:25;6.27;;;4.17;;
6860;SDS011;3469;47.060;15.460;2022-10-31T13:47:55;6.63;;;4.90;;
6860;SDS011;3469;47.060;15.460;2022-10-31T13:50:28;6.10;;;4.43;;
6860;SDS011;3469;47.060;15.460;2022-10-31T13:53:11;6.17;;;4.50;;
6860;SDS011;3469;47.060;15.460;2022-10-31T13:55:42;5.50;;;4.50;;
6860;SDS011;3469;47.060;15.460;2022-10-31T14:01:03;6.70;;;4.70;;
6860;SDS011;3469;47.060;15.460;2022-10-31T14:03:44;5.70;;;4.80;;
6860;SDS011;3469;47.060;15.460;2022-10-31T14:06:34;6.37;;;4.60;;
6860;SDS011;3469;47.060;15.460;2022-10-31T14:09:05;7.90;;;5.00;;
6860;SDS011;3469;47.060;15.460;2022-10-31T14:11:46;6.70;;;5.03;;
6860;SDS011;3469;47.060;15.460;2022-10-31T14:14:15;9.17;;;5.03;;
6860;SDS011;3469;47.060;15.460;2022-10-31T14:16:44;5.77;;;4.80;;
6860;SDS011;3469;47.060;15.460;2022-10-31T14:19:19;6.23;;;5.60;;
6860;SDS011;3469;47.060;15.460;2022-10-31T14:21:49;7.03;;;5.73;;
6860;SDS011;3469;47.060;15.460;2022-10-31T14:24:31;6.97;;;5.73;;
6860;SDS011;3469;47.060;15.460;2022-10-31T14:27:04;5.57;;;4.90;;
6860;SDS011;3469;47.060;15.460;2022-10-31T14:29:48;8.27;;;5.87;;
6860;SDS011;3469;47.060;15.460;2022-10-31T14:32:19;6.13;;;5.03;;
6860;SDS011;3469;47.060;15.460;2022-10-31T14:34:52;6.80;;;5.30;;
6860;SDS011;3469;47.060;15.460;2022-10-31T14:37:39;7.07;;;5.50;;
6860;SDS011;3469;47.060;15.460;2022-10-31T14:40:22;6.10;;;5.60;;
6860;SDS011;3469;47.060;15.460;2022-10-31T14:43:04;6.03;;;5.53;;
6860;SDS011;3469;47.060;15.460;2022-10-31T14:45:42;7.67;;;5.30;;
6860;SDS011;3469;47.060;15.460;2022-10-31T14:48:25;11.47;;;5.83;;
6860;SDS011;3469;47.060;15.460;2022-10-31T14:51:03;8.53;;;6.23;;
6860;SDS011;3469;47.060;15.460;2022-10-31T14:53:40;10.47;;;5.53;;
6860;SDS011;3469;47.060;15.460;2022-10-31T14:56:19;6.87;;;5.27;;
6860;SDS011;3469;47.060;15.460;2022-10-31T14:58:51;9.10;;;5.37;;
6860;SDS011;3469;47.060;15.460;2022-10-31T15:01:22;6.20;;;5.60;;
6860;SDS011;3469;47.060;15.460;2022-10-31T15:03:55;8.60;;;7.10;;
6860;SDS011;3469;47.060;15.460;2022-10-31T15:06:48;8.90;;;6.40;;
6860;SDS011;3469;47.060;15.460;2022-10-31T15:09:22;7.00;;;6.37;;
6860;SDS011;3469;47.060;15.460;2022-10-31T15:11:54;7.77;;;5.80;;
6860;SDS011;3469;47.060;15.460;2022-10-31T15:14:25;8.00;;;6.27;;
6860;SDS011;3469;47.060;15.460;2022-10-31T15:17:01;7.67;;;5.60;;
6860;SDS011;3469;47.060;15.460;2022-10-31T15:19:30;6.40;;;5.73;;
6860;SDS011;3469;47.060;15.460;2022-10-31T15:22:00;6.20;;;5.60;;
6860;SDS011;3469;47.060;15.460;2022-10-31T15:24:30;7.40;;;5.93;;
6860;SDS011;3469;47.060;15.460;2022-10-31T15:27:00;13.07;;;6.43;;
6860;SDS011;3469;47.060;15.460;2022-10-31T15:29:32;9.20;;;6.57;;
6860;SDS011;3469;47.060;15.460;2022-10-31T15:32:01;16.13;;;6.87;;
6860;SDS011;3469;47.060;15.460;2022-10-31T15:34:43;7.43;;;6.70;;
6860;SDS011;3469;47.060;15.460;2022-10-31T15:37:12;6.60;;;6.00;;
6860;SDS011;3469;47.060;15.460;2022-10-31T15:39:42;11.20;;;7.13;;
6860;SDS011;3469;47.060;15.460;2022-10-31T15:42:18;7.67;;;6.50;;
6860;SDS011;3469;47.060;15.460;2022-10-31T15:44:51;8.87;;;6.60;;
6860;SDS011;3469;47.060;15.460;2022-10-31T15:47:21;6.50;;;5.63;;